Time;durP1;ratioP1;P1;durP2;ratioP2;P2;SDS_P1;SDS_P2;PMS_P1;PMS_P2;Temp;Humidity;BMP_temperature;BMP_pressure;BME280_temperature;BME280_humidity;BME280_pressure;Samples;Min_cycle;Max_cycle;Signal;HPM_P1;HPM_P2
2022/09/23 00:01:32;;;;;;;3.23;2.17;;;10.00;99.90;;;;;;4917784;29;20643;-77
2022/09/23 00:03:59;;;;;;;6.50;2.97;;;10.00;99.90;;;;;;4916006;29;20430;-78
2022/09/23 00:06:27;;;;;;;2.35;1.80;;;9.90;99.90;;;;;;4917494;29;20198;-77
2022/09/23 00:08:53;;;;;;;2.15;1.88;;;9.90;99.90;;;;;;4917439;29;20746;-76
2022/09/23 00:11:26;;;;;;;4.15;2.22;;;9.90;99.90;;;;;;4918610;29;20556;-77
2022/09/23 00:13:56;;;;;;;2.30;2.10;;;10.00;99.90;;;;;;4916945;29;20261;-76
2022/09/23 00:16:25;;;;;;;2.90;2.60;;;10.00;99.90;;;;;;4917658;29;20290;-77
2022/09/23 00:18:51;;;;;;;3.00;2.42;;;10.00;99.90;;;;;;4900424;29;20196;-78
2022/09/23 00:21:18;;;;;;;2.30;2.10;;;10.00;99.90;;;;;;4934661;29;20280;-75
2022/09/23 00:23:43;;;;;;;2.70;2.07;;;10.00;99.90;;;;;;4936180;29;20414;-77
2022/09/23 00:26:12;;;;;;;1.77;1.67;;;10.00;99.90;;;;;;4935914;29;20475;-77
2022/09/23 00:28:38;;;;;;;4.53;2.13;;;10.00;99.90;;;;;;4936168;29;20205;-76
2022/09/23 00:31:10;;;;;;;3.57;1.90;;;10.00;99.90;;;;;;4920360;29;20201;-76
2022/09/23 00:33:36;;;;;;;2.20;2.00;;;10.00;99.90;;;;;;4917221;29;20182;-77
2022/09/23 00:36:04;;;;;;;5.07;2.20;;;10.00;99.90;;;;;;4899571;29;20465;-76
2022/09/23 00:38:30;;;;;;;4.78;2.13;;;10.00;99.90;;;;;;4917170;29;20554;-79
2022/09/23 00:40:57;;;;;;;7.93;2.30;;;9.90;99.90;;;;;;4931222;29;20722;-77
2022/09/23 00:43:43;;;;;;;3.20;2.30;;;9.90;99.90;;;;;;4918981;29;20186;-76
2022/09/23 00:46:29;;;;;;;3.42;2.00;;;10.00;99.90;;;;;;4935557;29;20444;-77
2022/09/23 00:49:00;;;;;;;6.20;1.80;;;10.00;99.90;;;;;;4936203;29;20212;-74
2022/09/23 00:51:32;;;;;;;2.27;2.07;;;10.00;99.90;;;;;;4901085;29;20182;-76
2022/09/23 00:53:58;;;;;;;2.03;1.63;;;10.00;99.90;;;;;;4917785;29;20433;-77
2022/09/23 00:56:24;;;;;;;5.27;2.30;;;10.00;99.90;;;;;;4917017;29;20851;-75
2022/09/23 00:58:50;;;;;;;2.77;1.87;;;10.00;99.90;;;;;;4916999;29;20781;-75
2022/09/23 01:01:18;;;;;;;2.80;2.00;;;10.00;99.90;;;;;;4917053;29;20966;-78
2022/09/23 01:03:45;;;;;;;4.25;2.00;;;10.00;99.90;;;;;;4924184;29;20670;-77
2022/09/23 01:06:12;;;;;;;3.87;2.07;;;9.90;99.90;;;;;;4907774;29;20209;-75
2022/09/23 01:08:39;;;;;;;2.33;1.88;;;9.90;99.90;;;;;;4936019;29;20468;-76
2022/09/23 01:11:27;;;;;;;2.75;1.88;;;9.90;99.90;;;;;;4918101;29;20264;-76
2022/09/23 01:14:27;;;;;;;3.60;2.07;;;9.90;99.90;;;;;;4916697;29;20182;-77
2022/09/23 01:16:57;;;;;;;2.63;2.35;;;9.90;99.90;;;;;;4916962;29;20946;-74
2022/09/23 01:20:00;;;;;;;4.60;2.47;;;9.90;99.90;;;;;;4919958;29;20193;-77
2022/09/23 01:22:45;;;;;;;4.82;2.45;;;9.90;99.90;;;;;;4934406;29;20564;-77
2022/09/23 01:25:30;;;;;;;2.27;2.07;;;9.90;99.90;;;;;;4935488;29;20560;-75
2022/09/23 01:27:55;;;;;;;1.92;1.70;;;9.80;99.90;;;;;;4934153;29;20475;-76
2022/09/23 01:30:56;;;;;;;3.13;2.10;;;9.80;99.90;;;;;;4924897;29;20210;-75
2022/09/23 01:33:27;;;;;;;6.73;2.60;;;9.80;99.90;;;;;;4916722;29;20178;-78
2022/09/23 01:36:12;;;;;;;4.77;2.37;;;9.80;99.90;;;;;;4916263;29;20847;-75
2022/09/23 01:38:51;;;;;;;3.67;2.60;;;9.70;99.90;;;;;;4928479;29;20426;-75
2022/09/23 01:41:38;;;;;;;2.40;1.92;;;9.70;99.90;;;;;;4935803;29;20177;-77
2022/09/23 01:44:21;;;;;;;2.50;2.25;;;9.60;99.90;;;;;;4935175;29;20192;-78
2022/09/23 01:46:59;;;;;;;3.22;2.33;;;9.60;99.90;;;;;;4934292;29;20689;-76
2022/09/23 01:49:36;;;;;;;3.95;2.38;;;9.60;99.90;;;;;;4916543;29;20221;-76
2022/09/23 01:52:08;;;;;;;3.75;2.50;;;9.60;99.90;;;;;;4916539;29;20279;-75
2022/09/23 01:55:03;;;;;;;3.78;2.10;;;9.60;99.90;;;;;;4899051;29;20189;-76
2022/09/23 01:57:33;;;;;;;2.75;1.95;;;9.60;99.90;;;;;;4912614;29;20208;-76
2022/09/23 02:00:13;;;;;;;4.55;2.28;;;9.50;99.90;;;;;;4939094;29;20272;-76
2022/09/23 02:02:48;;;;;;;3.60;2.33;;;9.50;99.90;;;;;;4938930;29;20523;-78
2022/09/23 02:05:37;;;;;;;7.43;2.20;;;9.50;99.90;;;;;;4938501;29;20660;-78
2022/09/23 02:08:10;;;;;;;3.45;2.15;;;9.50;99.90;;;;;;4930623;29;20273;-77
2022/09/23 02:10:42;;;;;;;5.70;2.47;;;9.50;99.90;;;;;;4919582;29;20524;-75
2022/09/23 02:13:19;;;;;;;3.95;2.88;;;9.50;99.90;;;;;;4919588;29;20205;-75
2022/09/23 02:15:52;;;;;;;2.50;2.10;;;9.60;99.90;;;;;;4902199;29;20181;-76
2022/09/23 02:18:27;;;;;;;4.60;2.42;;;9.60;99.90;;;;;;4927993;29;20273;-76
2022/09/23 02:20:59;;;;;;;5.20;2.30;;;9.50;99.90;;;;;;4938390;29;20256;-75
2022/09/23 02:23:32;;;;;;;2.33;2.08;;;9.50;99.90;;;;;;4938456;29;20178;-75
2022/09/23 02:26:18;;;;;;;2.97;2.33;;;9.50;99.90;;;;;;4937714;29;20647;-77
2022/09/23 02:29:06;;;;;;;4.85;2.60;;;9.50;99.90;;;;;;4921237;29;20238;-76
2022/09/23 02:31:54;;;;;;;2.80;2.20;;;9.50;99.90;;;;;;4900578;29;20171;-76
2022/09/23 02:34:36;;;;;;;4.07;2.00;;;9.50;99.90;;;;;;4899946;29;20176;-78
2022/09/23 02:37:07;;;;;;;3.60;2.22;;;9.60;99.90;;;;;;4914720;29;20195;-75
2022/09/23 02:39:46;;;;;;;3.05;2.75;;;9.60;99.90;;;;;;4936547;29;20185;-78
2022/09/23 02:42:17;;;;;;;4.18;1.73;;;9.60;99.90;;;;;;4937983;29;20532;-75
2022/09/23 02:44:43;;;;;;;2.55;2.30;;;9.60;99.90;;;;;;4937714;29;20188;-75
2022/09/23 02:47:09;;;;;;;6.40;2.40;;;9.60;99.90;;;;;;4937988;29;20288;-77
2022/09/23 02:49:35;;;;;;;5.78;2.10;;;9.60;99.90;;;;;;4915177;29;20305;-75
2022/09/23 02:52:03;;;;;;;3.83;2.40;;;9.70;99.90;;;;;;4905159;29;20269;-77
2022/09/23 02:54:32;;;;;;;3.03;2.53;;;9.60;99.90;;;;;;4935973;29;20522;-75
2022/09/23 02:57:04;;;;;;;2.28;2.08;;;9.60;99.90;;;;;;4937664;29;20205;-74
2022/09/23 02:59:31;;;;;;;4.13;2.65;;;9.60;99.90;;;;;;4937829;29;20733;-76
2022/09/23 03:02:16;;;;;;;5.90;2.15;;;9.60;99.90;;;;;;4936506;29;20844;-76
2022/09/23 03:05:13;;;;;;;3.13;1.90;;;9.60;99.90;;;;;;4936820;29;20188;-75
2022/09/23 03:07:44;;;;;;;7.45;2.75;;;9.60;99.90;;;;;;4935920;29;20294;-76
2022/09/23 03:10:42;;;;;;;4.85;2.45;;;9.60;99.90;;;;;;4936344;29;20232;-77
2022/09/23 03:13:14;;;;;;;3.17;2.42;;;9.50;99.90;;;;;;4935904;29;20549;-74
2022/09/23 03:15:51;;;;;;;4.75;2.85;;;9.50;99.90;;;;;;4937310;29;20181;-77
2022/09/23 03:18:30;;;;;;;4.90;2.47;;;9.50;99.90;;;;;;4937300;29;20686;-77
2022/09/23 03:21:02;;;;;;;6.05;3.30;;;9.40;99.90;;;;;;4936067;29;20417;-76
2022/09/23 03:23:34;;;;;;;6.43;3.00;;;9.40;99.90;;;;;;4928618;29;20194;-75
2022/09/23 03:26:05;;;;;;;4.60;2.43;;;9.50;99.90;;;;;;4917828;29;20217;-77
2022/09/23 03:28:31;;;;;;;4.15;2.70;;;9.40;99.90;;;;;;4901236;29;20462;-79
2022/09/23 03:31:00;;;;;;;4.67;2.90;;;9.40;99.90;;;;;;4917999;29;20258;-76
2022/09/23 03:33:29;;;;;;;4.30;2.77;;;9.40;99.90;;;;;;4925904;29;20425;-77
2022/09/23 03:38:52;;;;;;;5.10;2.90;;;9.40;99.90;;;;;;4937087;29;20268;-77
2022/09/23 03:41:28;;;;;;;4.53;2.83;;;9.40;99.90;;;;;;4936742;29;20669;-76
2022/09/23 03:43:57;;;;;;;4.00;3.22;;;9.40;99.90;;;;;;4920163;29;20258;-76
2022/09/23 03:46:26;;;;;;;4.53;2.50;;;9.40;99.90;;;;;;4913482;29;20205;-75
2022/09/23 03:48:51;;;;;;;4.20;2.90;;;9.40;99.90;;;;;;4898847;29;20199;-75
2022/09/23 03:51:22;;;;;;;3.33;2.10;;;9.40;99.90;;;;;;4899015;29;20175;-76
2022/09/23 03:53:49;;;;;;;4.23;3.00;;;9.40;99.90;;;;;;4926886;29;20547;-76
2022/09/23 03:56:15;;;;;;;4.18;2.35;;;9.30;99.90;;;;;;4936576;29;20436;-77
2022/09/23 03:58:41;;;;;;;4.83;3.20;;;9.30;99.90;;;;;;4936612;29;20634;-74
2022/09/23 04:01:07;;;;;;;4.00;2.57;;;9.30;99.90;;;;;;4936869;29;20424;-76
2022/09/23 04:03:32;;;;;;;3.03;2.70;;;9.30;99.90;;;;;;4928268;29;20435;-77
2022/09/23 04:05:58;;;;;;;3.80;2.67;;;9.20;99.90;;;;;;4916442;29;20220;-75
2022/09/23 04:08:23;;;;;;;6.77;3.00;;;9.10;99.90;;;;;;4917595;29;20264;-75
2022/09/23 04:10:49;;;;;;;5.27;2.80;;;9.20;99.90;;;;;;4917477;29;20186;-77
2022/09/23 04:13:15;;;;;;;5.27;2.83;;;9.10;99.90;;;;;;4921436;29;20226;-75
2022/09/23 04:15:40;;;;;;;5.30;2.40;;;9.10;99.90;;;;;;4936015;29;20184;-74
2022/09/23 04:18:06;;;;;;;5.17;2.77;;;9.10;99.90;;;;;;4936205;29;20189;-75
2022/09/23 04:20:32;;;;;;;6.97;2.70;;;9.00;99.90;;;;;;4935865;29;20181;-74
2022/09/23 04:22:57;;;;;;;5.73;3.10;;;9.00;99.90;;;;;;4934566;29;20185;-75
2022/09/23 04:25:23;;;;;;;5.53;2.90;;;9.00;99.90;;;;;;4921101;29;20253;-78
2022/09/23 04:27:48;;;;;;;3.57;2.70;;;9.10;99.90;;;;;;4918347;29;20286;-76
2022/09/23 04:30:14;;;;;;;5.53;2.70;;;9.10;99.90;;;;;;4920610;29;20625;-75
2022/09/23 04:32:40;;;;;;;4.90;2.53;;;9.10;99.90;;;;;;4936248;29;20212;-76
2022/09/23 04:35:06;;;;;;;4.13;2.67;;;9.10;99.90;;;;;;4934703;29;20233;-77
2022/09/23 04:37:31;;;;;;;6.80;2.90;;;9.00;99.90;;;;;;4936039;29;20257;-75
2022/09/23 04:39:57;;;;;;;5.50;2.53;;;9.00;99.90;;;;;;4931516;29;20682;-77
2022/09/23 04:42:23;;;;;;;4.53;2.70;;;9.00;99.90;;;;;;4934709;29;20189;-76
2022/09/23 04:44:48;;;;;;;5.93;3.43;;;9.00;99.90;;;;;;4935742;29;20178;-75
2022/09/23 04:47:14;;;;;;;4.07;3.67;;;9.00;99.90;;;;;;4935952;29;20209;-74
2022/09/23 04:49:40;;;;;;;6.43;2.60;;;9.00;99.90;;;;;;4934373;29;20541;-75
2022/09/23 04:52:06;;;;;;;3.93;2.80;;;9.00;99.90;;;;;;4919877;29;20233;-76
2022/09/23 04:54:31;;;;;;;3.43;3.00;;;8.90;99.90;;;;;;4916942;29;20178;-76
2022/09/23 04:56:57;;;;;;;7.20;2.77;;;8.80;99.90;;;;;;4917176;29;20695;-76
2022/09/23 04:59:23;;;;;;;6.03;3.13;;;8.70;99.90;;;;;;4915918;29;20190;-78
2022/09/23 05:01:50;;;;;;;7.80;3.00;;;8.60;99.90;;;;;;4916025;29;20269;-77
2022/09/23 05:04:16;;;;;;;4.30;3.10;;;8.60;99.90;;;;;;4915563;29;20214;-77
2022/09/23 05:06:45;;;;;;;5.03;2.87;;;8.50;99.90;;;;;;4916918;29;20256;-77
2022/09/23 05:09:16;;;;;;;6.50;3.97;;;8.50;99.90;;;;;;4915622;29;20478;-78
2022/09/23 05:11:42;;;;;;;6.45;2.70;;;8.50;99.90;;;;;;4916922;29;20197;-77
2022/09/23 05:14:08;;;;;;;7.90;3.70;;;8.60;99.90;;;;;;4933764;29;20182;-76
2022/09/23 05:16:34;;;;;;;6.20;3.03;;;8.50;99.90;;;;;;4935741;29;20209;-76
2022/09/23 05:19:01;;;;;;;7.20;3.42;;;8.50;99.90;;;;;;4935961;29;20182;-75
2022/09/23 05:21:30;;;;;;;7.68;3.42;;;8.50;99.90;;;;;;4934762;29;20245;-75
2022/09/23 05:23:59;;;;;;;6.13;3.20;;;8.50;99.90;;;;;;4918505;29;20693;-78
2022/09/23 05:26:28;;;;;;;7.47;3.17;;;8.50;99.90;;;;;;4916500;29;20218;-74
2022/09/23 05:28:55;;;;;;;8.52;3.90;;;8.50;99.90;;;;;;4916698;29;20206;-75
2022/09/23 05:31:23;;;;;;;5.97;3.25;;;8.50;99.90;;;;;;4919129;29;20634;-75
2022/09/23 05:33:56;;;;;;;4.93;2.95;;;8.60;99.90;;;;;;4916662;29;20182;-76
2022/09/23 05:36:22;;;;;;;5.50;3.50;;;8.60;99.90;;;;;;4939117;29;20196;-74
2022/09/23 05:38:50;;;;;;;6.75;3.15;;;8.50;99.90;;;;;;4939117;29;20190;-76
2022/09/23 05:41:17;;;;;;;8.18;4.15;;;8.50;99.90;;;;;;4939169;29;20186;-77
2022/09/23 05:43:43;;;;;;;7.03;3.75;;;8.50;99.90;;;;;;4907471;29;20246;-76
2022/09/23 05:46:10;;;;;;;5.05;3.35;;;8.60;99.90;;;;;;4918359;29;20210;-77
2022/09/23 05:48:37;;;;;;;7.20;3.95;;;8.60;99.90;;;;;;4919845;29;20609;-76
2022/09/23 05:51:07;;;;;;;7.40;3.92;;;8.60;99.90;;;;;;4920054;29;20206;-75
2022/09/23 05:53:33;;;;;;;4.82;3.83;;;8.50;99.90;;;;;;4931997;29;20205;-75
2022/09/23 05:55:59;;;;;;;10.83;4.23;;;8.50;99.90;;;;;;4938604;29;20252;-75
2022/09/23 05:58:26;;;;;;;7.75;4.75;;;8.60;99.90;;;;;;4938834;29;20182;-75
2022/09/23 06:00:54;;;;;;;10.05;4.32;;;8.60;99.90;;;;;;4938943;29;20228;-76
2022/09/23 06:03:20;;;;;;;10.20;4.15;;;8.60;99.90;;;;;;4938196;29;20272;-77
2022/09/23 06:05:47;;;;;;;6.50;3.83;;;8.60;99.90;;;;;;4920472;29;20277;-78
2022/09/23 06:08:13;;;;;;;6.22;3.88;;;8.60;99.90;;;;;;4931072;29;20198;-77
2022/09/23 06:10:43;;;;;;;6.90;3.60;;;8.60;99.90;;;;;;4902931;29;20553;-75
2022/09/23 06:13:10;;;;;;;6.72;4.00;;;8.60;99.90;;;;;;4919798;29;20511;-75
2022/09/23 06:15:36;;;;;;;11.55;4.18;;;8.60;99.90;;;;;;4919349;29;20178;-76
2022/09/23 06:18:03;;;;;;;7.60;4.00;;;8.70;99.90;;;;;;4919348;29;20189;-77
2022/09/23 06:20:29;;;;;;;7.32;3.97;;;8.80;99.90;;;;;;4902468;29;20185;-78
2022/09/23 06:22:56;;;;;;;5.60;3.50;;;8.70;99.90;;;;;;4912790;29;20193;-77
2022/09/23 06:25:22;;;;;;;11.35;4.63;;;8.80;99.90;;;;;;4900079;29;20203;-76
2022/09/23 06:27:55;;;;;;;10.23;4.40;;;8.80;99.90;;;;;;4900621;29;20205;-76
2022/09/23 06:30:22;;;;;;;8.80;4.10;;;8.90;99.90;;;;;;4900216;29;20213;-76
2022/09/23 06:32:52;;;;;;;12.18;4.90;;;9.00;99.90;;;;;;4905829;29;20178;-77
2022/09/23 06:35:18;;;;;;;6.60;4.03;;;9.20;99.90;;;;;;4918812;29;20170;-76
2022/09/23 06:37:44;;;;;;;7.28;4.13;;;9.20;99.90;;;;;;4919143;29;20572;-80
2022/09/23 06:40:11;;;;;;;10.83;4.97;;;9.40;99.90;;;;;;4919284;29;20186;-80
2022/09/23 06:42:36;;;;;;;6.00;3.78;;;9.50;99.90;;;;;;4904360;29;20437;-78
2022/09/23 06:45:02;;;;;;;8.77;5.20;;;9.60;99.90;;;;;;4937730;29;20197;-77
2022/09/23 06:47:28;;;;;;;7.23;4.13;;;9.70;99.90;;;;;;4937989;29;20201;-75
2022/09/23 06:49:54;;;;;;;9.03;4.73;;;9.90;99.90;;;;;;4938058;29;20293;-74
2022/09/23 06:52:20;;;;;;;7.20;3.63;;;10.10;99.90;;;;;;4936310;29;20654;-75
2022/09/23 06:54:46;;;;;;;13.60;5.50;;;10.30;99.90;;;;;;4931609;29;20426;-76
2022/09/23 06:57:13;;;;;;;7.80;3.83;;;10.40;99.90;;;;;;4918672;29;20437;-74
2022/09/23 06:59:39;;;;;;;5.73;3.20;;;10.60;99.90;;;;;;4901814;29;20414;-76
2022/09/23 07:02:05;;;;;;;5.30;3.90;;;10.80;99.90;;;;;;4920315;29;20418;-78
2022/09/23 07:04:30;;;;;;;8.10;3.43;;;11.00;99.90;;;;;;4936252;29;20447;-79
2022/09/23 07:06:56;;;;;;;14.63;3.70;;;11.20;99.90;;;;;;4936425;29;20445;-75
2022/09/23 07:09:22;;;;;;;7.07;3.50;;;11.50;99.90;;;;;;4937675;29;20209;-76
2022/09/23 07:11:47;;;;;;;5.80;3.43;;;11.60;99.90;;;;;;4922525;29;20528;-74
2022/09/23 07:14:13;;;;;;;5.73;2.90;;;11.80;99.90;;;;;;4899384;29;20210;-79
2022/09/23 07:16:39;;;;;;;8.23;3.17;;;11.90;99.90;;;;;;4902305;29;20231;-77
2022/09/23 07:19:04;;;;;;;5.90;2.50;;;12.10;99.90;;;;;;4899625;29;20191;-76
2022/09/23 07:21:30;;;;;;;3.67;2.40;;;12.10;99.90;;;;;;4899298;29;20183;-74
2022/09/23 07:23:56;;;;;;;3.60;2.50;;;12.30;99.90;;;;;;4899325;29;20640;-74
2022/09/23 07:26:23;;;;;;;4.20;2.70;;;12.50;99.90;;;;;;4899198;29;20222;-74
2022/09/23 07:28:56;;;;;;;4.63;2.47;;;12.60;99.90;;;;;;4913667;29;20963;-78
2022/09/23 07:31:22;;;;;;;4.90;3.00;;;12.60;99.90;;;;;;4882504;29;20763;-75
2022/09/23 07:33:48;;;;;;;5.47;3.30;;;12.60;99.90;;;;;;4913609;29;20466;-76
2022/09/23 07:36:17;;;;;;;5.10;3.00;;;12.80;99.90;;;;;;4899091;29;20533;-76
2022/09/23 07:38:43;;;;;;;7.67;2.97;;;12.90;99.90;;;;;;4899131;29;20423;-78
2022/09/23 07:41:11;;;;;;;5.67;2.50;;;13.10;99.90;;;;;;4882551;29;20410;-76
2022/09/23 07:43:38;;;;;;;7.03;3.90;;;13.10;99.90;;;;;;4913663;29;20435;-76
2022/09/23 07:46:09;;;;;;;6.40;2.67;;;13.30;99.90;;;;;;4897074;29;20795;-77
2022/09/23 07:48:36;;;;;;;8.47;3.90;;;13.30;99.90;;;;;;4898957;29;20459;-78
2022/09/23 07:51:07;;;;;;;4.10;2.63;;;13.40;99.90;;;;;;4899116;29;20414;-76
2022/09/23 07:53:32;;;;;;;7.13;3.23;;;13.50;99.90;;;;;;4899025;29;20482;-73
2022/09/23 07:55:58;;;;;;;4.67;3.03;;;13.60;99.90;;;;;;4898416;29;20451;-75
2022/09/23 07:58:25;;;;;;;5.80;3.20;;;13.60;99.90;;;;;;4898866;29;20190;-74
2022/09/23 08:00:52;;;;;;;5.37;2.93;;;13.70;99.90;;;;;;4898807;29;20556;-76
2022/09/23 08:03:18;;;;;;;6.17;2.90;;;13.80;99.90;;;;;;4913200;29;20401;-76
2022/09/23 08:05:45;;;;;;;5.80;2.80;;;14.00;99.90;;;;;;4898312;29;20406;-75
2022/09/23 08:08:12;;;;;;;9.13;2.93;;;14.20;99.90;;;;;;4913021;29;20427;-75
2022/09/23 08:10:38;;;;;;;5.17;2.67;;;14.40;99.90;;;;;;4897996;29;20910;-77
2022/09/23 08:13:04;;;;;;;3.60;2.60;;;14.40;99.90;;;;;;4904245;29;20428;-80
2022/09/23 08:15:30;;;;;;;5.93;2.30;;;14.50;99.90;;;;;;4915238;29;20393;-75
2022/09/23 08:17:59;;;;;;;2.73;2.30;;;14.50;99.90;;;;;;4917253;29;20202;-79
2022/09/23 08:20:43;;;;;;;3.93;2.50;;;14.50;99.90;;;;;;4917338;29;20179;-78
2022/09/23 08:23:13;;;;;;;3.40;2.40;;;14.50;99.90;;;;;;4917524;29;20418;-77
2022/09/23 08:25:40;;;;;;;5.90;2.93;;;14.60;99.90;;;;;;4916321;29;20536;-75
2022/09/23 08:28:07;;;;;;;2.80;2.10;;;14.60;99.90;;;;;;4917179;29;20401;-74
2022/09/23 08:30:33;;;;;;;3.70;2.47;;;14.80;99.90;;;;;;4917200;29;20417;-77
2022/09/23 08:32:58;;;;;;;3.37;2.67;;;15.10;99.90;;;;;;4917236;29;20433;-79
2022/09/23 08:35:24;;;;;;;3.97;2.93;;;15.10;99.90;;;;;;4916884;29;20424;-76
2022/09/23 08:37:50;;;;;;;19.90;3.30;;;15.10;99.90;;;;;;4917071;29;20202;-75
2022/09/23 08:40:17;;;;;;;3.20;2.10;;;15.30;99.90;;;;;;4900263;29;20186;-76
2022/09/23 08:42:44;;;;;;;4.03;2.83;;;15.50;99.90;;;;;;4917060;29;20253;-75
2022/09/23 08:45:22;;;;;;;5.43;2.57;;;15.60;99.90;;;;;;4916617;29;20418;-80
2022/09/23 08:48:05;;;;;;;4.63;2.87;;;15.70;99.90;;;;;;4899890;29;20465;-77
2022/09/23 08:50:47;;;;;;;3.30;2.73;;;15.80;99.90;;;;;;4917165;29;20429;-77
2022/09/23 08:53:18;;;;;;;6.03;3.67;;;15.90;99.90;;;;;;4916937;29;20391;-79
2022/09/23 08:55:49;;;;;;;4.30;3.27;;;16.10;99.90;;;;;;4916419;29;20868;-79
2022/09/23 08:58:54;;;;;;;3.93;2.80;;;16.20;99.90;;;;;;4899796;29;20502;-77
2022/09/23 09:01:35;;;;;;;3.80;2.90;;;16.30;99.90;;;;;;4915076;29;20393;-80
2022/09/23 09:04:36;;;;;;;3.87;2.70;;;16.50;99.90;;;;;;4899651;29;20426;-78
2022/09/23 09:07:13;;;;;;;8.90;2.30;;;16.80;99.90;;;;;;4920796;29;20854;-76
2022/09/23 09:09:46;;;;;;;3.00;2.40;;;17.30;99.90;;;;;;4920685;29;20497;-76
2022/09/23 09:12:42;;;;;;;3.50;2.20;;;17.40;99.90;;;;;;4920684;29;20421;-79
2022/09/23 09:15:14;;;;;;;4.03;2.00;;;17.60;99.90;;;;;;4920363;29;20433;-78
2022/09/23 09:18:06;;;;;;;2.90;2.10;;;17.80;99.90;;;;;;4903231;29;20424;-76
2022/09/23 09:20:55;;;;;;;4.30;2.27;;;18.00;99.90;;;;;;4919278;29;20802;-77
2022/09/23 09:23:42;;;;;;;3.50;2.10;;;18.30;99.90;;;;;;4920564;29;20754;-77
2022/09/23 09:26:15;;;;;;;3.33;1.80;;;18.50;99.90;;;;;;4920099;29;20453;-75
2022/09/23 09:28:46;;;;;;;5.77;1.90;;;18.50;99.90;;;;;;4920293;29;20461;-75
2022/09/23 09:31:30;;;;;;;3.40;2.00;;;19.20;99.90;;;;;;4920528;29;20468;-76
2022/09/23 09:34:01;;;;;;;4.90;1.87;;;19.40;99.90;;;;;;4919806;29;20505;-76
2022/09/23 09:37:05;;;;;;;2.93;1.40;;;19.50;99.90;;;;;;4903179;29;20438;-77
2022/09/23 09:39:35;;;;;;;3.50;1.97;;;20.00;99.90;;;;;;4918931;29;20428;-78
2022/09/23 09:42:02;;;;;;;2.80;1.30;;;20.80;99.90;;;;;;4908860;29;20423;-79
2022/09/23 09:44:46;;;;;;;2.30;2.10;;;20.80;99.90;;;;;;4909943;29;20421;-74
2022/09/23 09:47:29;;;;;;;3.60;2.00;;;20.50;99.90;;;;;;4918401;29;20525;-77
2022/09/23 09:50:03;;;;;;;1.93;1.50;;;20.80;99.90;;;;;;4918652;29;20449;-77
2022/09/23 09:52:30;;;;;;;4.97;2.37;;;20.80;99.90;;;;;;4918874;29;20418;-77
2022/09/23 09:55:16;;;;;;;2.73;1.53;;;20.30;99.90;;;;;;4919739;29;20426;-75
2022/09/23 09:57:51;;;;;;;2.90;1.70;;;20.40;99.90;;;;;;4919886;29;20430;-76
2022/09/23 10:00:25;;;;;;;2.20;2.00;;;21.10;99.90;;;;;;4920151;29;20433;-79
2022/09/23 10:03:02;;;;;;;3.33;1.60;;;21.60;99.90;;;;;;4919925;29;20401;-78
2022/09/23 10:05:33;;;;;;;3.07;1.90;;;21.80;99.90;;;;;;4902606;29;20434;-77
2022/09/23 10:08:23;;;;;;;3.20;1.67;;;21.50;99.90;;;;;;4919591;29;20471;-77
2022/09/23 10:11:03;;;;;;;2.93;1.73;;;21.20;99.90;;;;;;4919611;29;20474;-76
2022/09/23 10:13:30;;;;;;;7.30;2.50;;;21.50;99.90;;;;;;4920006;29;20410;-77
2022/09/23 10:15:58;;;;;;;2.40;1.93;;;21.30;99.90;;;;;;4917942;29;20423;-75
2022/09/23 10:18:50;;;;;;;2.80;1.53;;;21.40;99.90;;;;;;4918825;29;20547;-74
2022/09/23 10:21:20;;;;;;;3.50;2.37;;;21.40;99.90;;;;;;4919217;29;20426;-76
2022/09/23 10:23:51;;;;;;;2.93;2.10;;;21.10;99.90;;;;;;4919727;29;20376;-77
2022/09/23 10:26:25;;;;;;;4.67;2.23;;;20.70;99.90;;;;;;4919324;29;20472;-75
2022/09/23 10:28:54;;;;;;;3.40;2.13;;;20.50;99.90;;;;;;4919467;29;20466;-78
2022/09/23 10:31:25;;;;;;;4.17;1.80;;;19.90;99.90;;;;;;4919426;29;20935;-78
2022/09/23 10:34:14;;;;;;;5.67;2.53;;;20.00;99.90;;;;;;4919017;29;20425;-78
2022/09/23 10:36:40;;;;;;;5.60;3.00;;;20.30;99.90;;;;;;4919194;29;20438;-78
2022/09/23 10:48:12;;;;;;;2.63;2.33;;;21.10;99.90;;;;;;4919210;29;20438;-79
2022/09/23 10:50:47;;;;;;;4.57;2.93;;;20.80;99.90;;;;;;4919075;29;20414;-75
2022/09/23 10:53:50;;;;;;;2.70;2.20;;;20.70;99.90;;;;;;4902095;29;20418;-78
2022/09/23 10:56:41;;;;;;;6.80;2.70;;;21.50;99.90;;;;;;4919328;29;20437;-75
2022/09/23 10:59:19;;;;;;;3.23;2.20;;;21.60;99.90;;;;;;4917554;29;20795;-77
2022/09/23 11:01:58;;;;;;;3.50;2.17;;;21.80;99.90;;;;;;4917662;29;20418;-74
2022/09/23 11:04:38;;;;;;;3.23;2.60;;;21.40;99.90;;;;;;4918412;29;20771;-77
2022/09/23 11:07:29;;;;;;;5.07;2.00;;;21.40;99.90;;;;;;4918702;29;20458;-76
2022/09/23 11:10:29;;;;;;;6.23;2.53;;;21.00;99.90;;;;;;4918864;29;20506;-77
2022/09/23 11:13:09;;;;;;;3.73;2.30;;;21.00;99.90;;;;;;4918870;29;20769;-78
2022/09/23 11:15:52;;;;;;;3.40;1.97;;;20.60;99.90;;;;;;4918345;29;20413;-78
2022/09/23 11:18:39;;;;;;;4.80;2.00;;;20.50;99.90;;;;;;4918649;29;20414;-78
2022/09/23 11:21:19;;;;;;;6.60;1.83;;;20.70;99.90;;;;;;4918543;29;20822;-76
2022/09/23 11:24:16;;;;;;;7.97;2.50;;;20.90;99.90;;;;;;4918319;29;20407;-79
2022/09/23 11:27:00;;;;;;;3.63;2.03;;;20.30;99.90;;;;;;4918114;29;20537;-77
2022/09/23 11:29:41;;;;;;;2.63;1.90;;;20.70;99.90;;;;;;4918000;29;21000;-76
2022/09/23 11:32:28;;;;;;;3.03;1.97;;;20.60;99.90;;;;;;4918185;29;20418;-77
2022/09/23 11:35:37;;;;;;;2.00;1.70;;;20.70;99.90;;;;;;4917863;29;20412;-75
2022/09/23 11:38:36;;;;;;;4.03;2.10;;;20.80;99.90;;;;;;4918168;29;20414;-76
2022/09/23 11:41:16;;;;;;;2.80;2.07;;;20.60;99.90;;;;;;4918081;29;20446;-76
2022/09/23 11:43:50;;;;;;;4.77;2.00;;;20.80;99.90;;;;;;4918128;29;20470;-75
2022/09/23 11:46:29;;;;;;;3.80;2.10;;;20.60;99.90;;;;;;4917870;29;20434;-79
2022/09/23 11:49:04;;;;;;;2.10;1.90;;;20.90;99.90;;;;;;4917785;29;20502;-74
2022/09/23 11:51:33;;;;;;;3.00;1.97;;;21.20;99.90;;;;;;4918171;29;20414;-77
2022/09/23 11:54:10;;;;;;;2.37;1.70;;;20.90;99.90;;;;;;4900736;29;20421;-74
2022/09/23 11:56:37;;;;;;;1.53;1.30;;;21.00;99.90;;;;;;4918077;29;20836;-76
2022/09/23 11:59:29;;;;;;;3.67;1.53;;;21.40;99.90;;;;;;4917694;29;20819;-76
2022/09/23 12:02:01;;;;;;;4.50;1.90;;;21.80;99.90;;;;;;4917599;29;20619;-76
2022/09/23 12:04:38;;;;;;;3.07;1.70;;;21.80;99.90;;;;;;4918364;29;20441;-76
2022/09/23 12:07:07;;;;;;;3.73;1.80;;;21.50;99.90;;;;;;4918889;29;20453;-77
2022/09/23 12:09:59;;;;;;;4.13;1.83;;;21.80;99.90;;;;;;4917726;29;20461;-76
2022/09/23 12:13:01;;;;;;;5.63;1.90;;;22.60;99.90;;;;;;4915616;29;20423;-77
2022/09/23 12:16:00;;;;;;;1.63;1.40;;;23.30;99.90;;;;;;4917364;29;20415;-77
2022/09/23 12:18:36;;;;;;;1.80;1.40;;;23.30;99.90;;;;;;4917401;29;20407;-76
2022/09/23 12:21:37;;;;;;;2.80;1.60;;;23.20;99.90;;;;;;4917538;29;20781;-76
2022/09/23 12:24:41;;;;;;;2.00;1.37;;;23.20;99.90;;;;;;4917299;29;20786;-76
2022/09/23 12:27:14;;;;;;;1.40;1.30;;;23.20;99.90;;;;;;4917096;29;20524;-78
2022/09/23 12:29:40;;;;;;;2.67;1.40;;;22.50;99.90;;;;;;4917344;29;20478;-77
2022/09/23 12:32:08;;;;;;;2.27;1.70;;;22.50;99.90;;;;;;4917230;29;20927;-77
2022/09/23 12:34:42;;;;;;;2.10;1.87;;;22.40;99.90;;;;;;4915810;29;20175;-76
2022/09/23 12:37:08;;;;;;;2.30;1.60;;;22.30;99.90;;;;;;4917025;29;20490;-76
2022/09/23 12:39:37;;;;;;;5.30;1.93;;;22.10;99.90;;;;;;4916568;29;20912;-77
2022/09/23 12:42:18;;;;;;;1.97;1.73;;;21.90;99.90;;;;;;4917145;29;20293;-76
2022/09/23 12:44:46;;;;;;;3.00;1.40;;;21.50;99.90;;;;;;4916658;29;20425;-79
2022/09/23 12:47:23;;;;;;;6.23;2.50;;;21.50;99.90;;;;;;4916834;29;20521;-74
2022/09/23 12:49:52;;;;;;;6.93;1.73;;;21.50;99.90;;;;;;4916937;29;20517;-79
2022/09/23 12:52:17;;;;;;;6.40;1.87;;;21.70;99.90;;;;;;4917169;29;20424;-78
2022/09/23 12:54:45;;;;;;;7.20;1.80;;;22.00;99.90;;;;;;4915482;29;20422;-75
2022/09/23 12:57:31;;;;;;;2.60;1.67;;;22.10;99.90;;;;;;4917097;29;20198;-75
2022/09/23 13:00:06;;;;;;;12.10;1.87;;;22.20;99.90;;;;;;4917119;29;20441;-75
2022/09/23 13:02:36;;;;;;;3.40;2.00;;;22.20;99.90;;;;;;4917002;29;20926;-77
2022/09/23 13:07:58;;;;;;;5.27;2.20;;;22.10;99.90;;;;;;4917303;29;20472;-78
2022/09/23 13:10:27;;;;;;;2.37;1.30;;;21.70;99.90;;;;;;4917298;29;20466;-73
2022/09/23 13:12:55;;;;;;;3.30;1.50;;;21.60;99.90;;;;;;4916999;29;20414;-73
2022/09/23 13:15:33;;;;;;;2.33;1.70;;;21.40;99.90;;;;;;4923880;29;20430;-75
2022/09/23 13:18:17;;;;;;;2.90;2.07;;;21.20;99.90;;;;;;4916704;29;20465;-73
2022/09/23 13:20:45;;;;;;;4.03;1.20;;;21.10;99.90;;;;;;4916598;29;20456;-75
2022/09/23 13:23:25;;;;;;;1.93;1.30;;;21.00;99.90;;;;;;4916787;29;20461;-75
2022/09/23 13:25:55;;;;;;;3.33;1.77;;;20.70;99.90;;;;;;4916063;29;20413;-75
2022/09/23 13:28:37;;;;;;;4.80;1.60;;;20.60;99.90;;;;;;4926923;29;20432;-73
2022/09/23 13:31:05;;;;;;;2.97;1.43;;;20.50;99.90;;;;;;4918690;29;20422;-74
2022/09/23 13:33:45;;;;;;;3.50;1.47;;;20.60;99.90;;;;;;4935239;29;20418;-74
2022/09/23 13:36:18;;;;;;;5.23;1.70;;;20.40;99.90;;;;;;4935266;29;20448;-74